LKTB/BRQ METAR and TAF weather

Enter ICAO airport designator
Station Type Date Time Source
LKTB METAR 2020/04/07 08:00 UTC NOAA

LKTB 070800Z 12011KT CAVOK 13/M04 Q1033 NOSIG


Station Type Date Time Source
LKTB Decoded METAR 2020/04/07 08:00 UTC NOAA

Brno / Turany, Czech Republic (LKTB) 49-09N 016-42E 246M
Apr 07, 2020 - 04:00 AM EDT / 2020.04.07 0800 UTC
Wind: from the ESE (120 degrees) at 13 MPH (11 KT):0
Visibility: greater than 7 mile(s):0
Temperature: 55 F (13 C)
Dew Point: 24 F (-4 C)
Relative Humidity: 30%
Pressure (altimeter): 30.50 in. Hg (1033 hPa)
ob: LKTB 070800Z 12011KT CAVOK 13/M04 Q1033 NOSIG
cycle: 8

Station Type Date Time Source
LKTB TAF 2020/04/07 06:08 UTC NOAA

TAF LKTB 070500Z 0706/0812 09008KT CAVOK
TEMPO 0709/0716 15014G24KT

Example: see airport list